Time;durP1;ratioP1;P1;durP2;ratioP2;P2;SDS_P1;SDS_P2;PMS_P1;PMS_P2;Temp;Humidity;BMP_temperature;BMP_pressure;BME280_temperature;BME280_humidity;BME280_pressure;Samples;Min_cycle;Max_cycle;Signal;HPM_P1;HPM_P2
2021/12/06 00:02:03;;;;;;;41.00;19.42;;;;;;;4.68;nan;99270.72;5041408;28;20084;-73
2021/12/06 00:04:49;;;;;;;33.20;18.03;;;;;;;4.60;nan;99260.56;5035828;28;20120;-73
2021/12/06 00:07:35;;;;;;;31.65;18.13;;;;;;;4.66;nan;99272.75;5012680;28;20733;-74
2021/12/06 00:10:21;;;;;;;38.05;18.00;;;;;;;4.64;nan;99269.53;5023242;28;20068;-74
2021/12/06 00:13:06;;;;;;;35.63;18.90;;;;;;;4.57;nan;99259.16;5032288;28;20033;-74
2021/12/06 00:15:52;;;;;;;35.72;19.08;;;;;;;4.59;nan;99269.38;5029678;28;20535;-73
2021/12/06 00:18:39;;;;;;;37.75;18.50;;;;;;;4.64;nan;99285.97;5025333;28;20037;-73
2021/12/06 00:21:25;;;;;;;35.65;18.50;;;;;;;4.67;nan;99282.19;5011511;28;20121;-73
2021/12/06 00:24:11;;;;;;;32.50;17.45;;;;;;;4.59;nan;99277.22;5011765;28;20037;-73
2021/12/06 00:26:57;;;;;;;35.20;18.67;;;;;;;4.57;nan;99282.63;5019066;28;20045;-74
2021/12/06 00:29:43;;;;;;;39.08;19.55;;;;;;;4.66;nan;99294.38;5016950;28;20376;-73
2021/12/06 00:32:28;;;;;;;38.05;19.15;;;;;;;4.65;nan;99284.19;5015572;28;20034;-73
2021/12/06 00:35:21;;;;;;;37.30;19.98;;;;;;;4.66;nan;99285.78;5018153;28;20030;-73
2021/12/06 00:38:07;;;;;;;37.83;19.98;;;;;;;4.55;nan;99269.03;5030137;28;20411;-73
2021/12/06 00:40:53;;;;;;;37.17;19.38;;;;;;;4.43;nan;99261.09;5029802;28;20029;-73
2021/12/06 00:43:39;;;;;;;40.00;20.45;;;;;;;4.59;nan;99277.22;5030012;28;20037;-73
2021/12/06 00:46:24;;;;;;;38.08;20.77;;;;;;;4.54;nan;99264.03;5031422;28;20446;-73
2021/12/06 00:49:11;;;;;;;39.22;20.98;;;;;;;4.68;nan;99288.97;5029277;28;20021;-74
2021/12/06 00:51:56;;;;;;;37.70;20.02;;;;;;;4.59;nan;99272.78;5030749;28;20026;-73
2021/12/06 00:54:44;;;;;;;36.67;19.40;;;;;;;4.57;nan;99263.59;5015847;28;20044;-74
2021/12/06 00:57:29;;;;;;;38.75;19.23;;;;;;;4.69;nan;99288.78;5030664;28;20053;-73
2021/12/06 01:00:20;;;;;;;38.10;20.48;;;;;;;4.69;nan;99288.78;5030698;28;20040;-73
2021/12/06 01:03:09;;;;;;;40.83;19.92;;;;;;;4.59;nan;99274.59;5031107;28;20125;-73
2021/12/06 01:05:55;;;;;;;40.92;20.25;;;;;;;4.69;nan;99280.13;5029944;28;20036;-74
2021/12/06 01:08:41;;;;;;;36.65;19.08;;;;;;;4.67;nan;99290.00;5031745;28;20033;-74
2021/12/06 01:11:27;;;;;;;35.88;19.05;;;;;;;4.61;nan;99275.19;5030810;28;20094;-73
2021/12/06 01:14:13;;;;;;;38.08;19.85;;;;;;;4.63;nan;99270.56;5031659;28;20455;-74
2021/12/06 01:16:58;;;;;;;33.67;18.67;;;;;;;4.69;nan;99282.72;5033780;28;20414;-73
2021/12/06 01:19:44;;;;;;;39.90;19.58;;;;;;;4.63;nan;99275.78;5033884;28;20429;-73
2021/12/06 01:22:44;;;;;;;38.75;19.10;;;;;;;4.69;nan;99274.91;5032445;28;20048;-73
2021/12/06 01:32:00;;;;;;;40.58;19.73;;;;;;;4.66;nan;99270.13;5015556;28;20496;-74
2021/12/06 01:40:22;;;;;;;40.67;19.55;;;;;;;4.70;nan;99279.13;5034594;28;20034;-73
2021/12/06 01:43:07;;;;;;;39.53;19.75;;;;;;;4.76;nan;99285.28;5024975;28;20691;-73
2021/12/06 01:45:53;;;;;;;39.00;20.42;;;;;;;4.79;nan;99290.88;5020973;28;20037;-74
2021/12/06 01:48:39;;;;;;;39.17;20.75;;;;;;;4.73;nan;99280.50;5035270;28;20033;-74
2021/12/06 01:51:25;;;;;;;48.92;22.65;;;;;;;4.71;nan;99267.69;5034360;28;20037;-74
2021/12/06 01:54:11;;;;;;;53.78;24.75;;;;;;;4.79;nan;99283.06;5034038;28;20037;-74
2021/12/06 01:56:57;;;;;;;57.70;24.42;;;;;;;4.86;nan;99288.19;5033876;28;20474;-73
2021/12/06 01:59:44;;;;;;;39.22;19.33;;;;;;;4.88;nan;99297.44;5028084;28;20042;-73
2021/12/06 02:02:30;;;;;;;35.50;17.65;;;;;;;4.83;nan;99281.59;5014593;28;20025;-74
2021/12/06 02:05:16;;;;;;;38.85;18.33;;;;;;;4.80;nan;99260.38;5033902;28;20037;-73
2021/12/06 02:08:02;;;;;;;38.25;17.70;;;;;;;4.90;nan;99284.94;5033689;28;20373;-73
2021/12/06 02:10:48;;;;;;;33.90;17.48;;;;;;;4.66;nan;99244.84;5033482;28;20037;-73
2021/12/06 02:14:04;;;;;;;31.33;16.98;;;;;;;4.83;nan;99268.56;5032702;28;20041;-74
2021/12/06 02:16:57;;;;;;;33.10;15.60;;;;;;;4.90;nan;99284.16;5034695;28;20060;-74
2021/12/06 02:19:48;;;;;;;36.30;16.90;;;;;;;4.85;nan;99269.16;5033967;28;20041;-73
2021/12/06 02:22:38;;;;;;;31.63;15.05;;;;;;;4.87;nan;99268.94;5013367;28;20038;-73
2021/12/06 02:25:24;;;;;;;29.50;15.35;;;;;;;4.98;nan;99289.13;5023363;28;20049;-74
2021/12/06 02:28:10;;;;;;;34.90;13.65;;;;;;;4.92;nan;99276.91;5034165;28;20034;-73
2021/12/06 02:30:56;;;;;;;31.10;15.75;;;;;;;4.91;nan;99272.72;5033146;28;20037;-73
2021/12/06 02:33:44;;;;;;;30.92;15.27;;;;;;;4.92;nan;99270.91;5034390;28;20034;-73
2021/12/06 02:36:30;;;;;;;28.73;14.65;;;;;;;5.00;nan;99291.50;5033761;28;20423;-73
2021/12/06 02:39:22;;;;;;;30.30;15.40;;;;;;;4.96;nan;99293.75;5032574;28;20038;-73
2021/12/06 02:42:11;;;;;;;32.78;14.90;;;;;;;5.01;nan;99283.47;5033078;28;20044;-73
2021/12/06 02:44:57;;;;;;;30.67;14.98;;;;;;;4.92;nan;99287.34;5032467;28;20395;-74
2021/12/06 02:47:43;;;;;;;30.42;14.82;;;;;;;4.98;nan;99273.47;5026385;28;20038;-73
2021/12/06 02:50:34;;;;;;;29.33;14.60;;;;;;;4.86;nan;99260.34;5019377;28;20065;-73
2021/12/06 02:53:22;;;;;;;29.83;14.95;;;;;;;4.98;nan;99272.66;5033668;28;20064;-73
2021/12/06 02:57:20;;;;;;;29.45;15.05;;;;;;;4.98;nan;99278.69;5033290;28;20038;-73
2021/12/06 02:59:25;;;;;;;31.48;14.20;;;;;;;4.96;nan;99269.47;5032966;28;20061;-73
2021/12/06 03:02:19;;;;;;;32.17;15.45;;;;;;;4.95;nan;99273.09;5032079;28;20041;-73
2021/12/06 03:05:06;;;;;;;29.90;15.82;;;;;;;4.80;nan;99250.75;5025295;28;20048;-74
2021/12/06 03:07:57;;;;;;;31.15;14.52;;;;;;;4.97;nan;99284.91;5023708;28;20422;-73
2021/12/06 03:10:43;;;;;;;31.67;15.50;;;;;;;4.93;nan;99288.94;5031831;28;20415;-73
2021/12/06 03:13:29;;;;;;;29.35;13.90;;;;;;;4.88;nan;99292.22;5013369;28;20034;-73
2021/12/06 03:16:15;;;;;;;28.70;14.23;;;;;;;4.90;nan;99299.81;5024732;28;20128;-73
2021/12/06 03:19:04;;;;;;;34.80;13.90;;;;;;;4.95;nan;99304.38;5033239;28;20117;-73
2021/12/06 03:21:51;;;;;;;26.10;12.13;;;;;;;4.97;nan;99308.38;5031952;28;20034;-73
2021/12/06 03:24:37;;;;;;;21.38;10.98;;;;;;;4.82;nan;99289.66;5031085;28;20037;-73
2021/12/06 03:27:22;;;;;;;20.02;9.45;;;;;;;4.96;nan;99313.81;5032325;28;20512;-73
2021/12/06 03:30:10;;;;;;;18.05;9.55;;;;;;;4.93;nan;99315.03;5032857;28;20033;-73
2021/12/06 03:32:56;;;;;;;19.10;8.57;;;;;;;4.85;nan;99303.06;5033547;28;20029;-73
2021/12/06 03:35:42;;;;;;;17.75;9.07;;;;;;;4.92;nan;99310.03;5031897;28;20119;-73
2021/12/06 03:38:27;;;;;;;17.23;8.75;;;;;;;4.95;nan;99320.03;5031115;28;20038;-73
2021/12/06 03:41:16;;;;;;;15.43;8.30;;;;;;;4.91;nan;99317.06;5032977;28;20095;-73
2021/12/06 03:44:02;;;;;;;15.13;7.63;;;;;;;4.90;nan;99320.69;5025160;28;20038;-72
2021/12/06 03:46:54;;;;;;;15.18;8.43;;;;;;;4.90;nan;99320.69;5025765;28;20029;-73
2021/12/06 03:49:42;;;;;;;13.93;7.35;;;;;;;4.87;nan;99316.69;5026986;28;20112;-73
2021/12/06 03:52:28;;;;;;;14.85;7.68;;;;;;;4.87;nan;99319.28;5032661;28;20032;-73
2021/12/06 03:55:14;;;;;;;15.25;7.45;;;;;;;4.90;nan;99323.28;5027587;28;20049;-73
2021/12/06 03:58:00;;;;;;;13.70;7.20;;;;;;;4.84;nan;99311.91;5031854;28;20042;-73
2021/12/06 04:00:46;;;;;;;12.15;7.10;;;;;;;4.82;nan;99311.31;5031497;28;20038;-74
2021/12/06 04:03:35;;;;;;;12.93;6.80;;;;;;;4.79;nan;99306.53;5031042;28;20461;-73
2021/12/06 04:06:20;;;;;;;12.60;6.53;;;;;;;4.85;nan;99317.91;5030909;28;20411;-73
2021/12/06 04:09:08;;;;;;;12.55;6.40;;;;;;;4.79;nan;99316.16;5030758;28;20506;-73
2021/12/06 04:11:53;;;;;;;15.77;7.30;;;;;;;4.79;nan;99314.38;5046917;28;20040;-73
2021/12/06 04:14:40;;;;;;;12.88;6.45;;;;;;;4.78;nan;99327.59;5031657;28;20487;-73
2021/12/06 04:17:26;;;;;;;14.85;7.75;;;;;;;4.77;nan;99329.44;5033693;28;20043;-73
2021/12/06 04:20:12;;;;;;;18.20;9.55;;;;;;;4.70;nan;99326.06;5031760;28;20175;-73
2021/12/06 04:22:58;;;;;;;19.33;10.45;;;;;;;4.68;nan;99323.66;5012680;28;20113;-73
2021/12/06 04:25:44;;;;;;;22.13;11.23;;;;;;;4.73;nan;99330.06;5024210;28;20128;-73
2021/12/06 04:28:32;;;;;;;24.75;12.88;;;;;;;4.76;nan;99335.63;5029988;28;20033;-73
2021/12/06 04:31:18;;;;;;;30.92;16.02;;;;;;;4.66;nan;99320.47;5029081;28;20048;-74
2021/12/06 04:34:04;;;;;;;31.00;17.23;;;;;;;4.68;nan;99322.88;5030760;28;20514;-73
2021/12/06 04:36:51;;;;;;;36.08;19.27;;;;;;;4.72;nan;99344.09;5031887;28;20041;-73
2021/12/06 04:39:37;;;;;;;35.88;18.38;;;;;;;4.77;nan;99344.28;5031070;28;20025;-73
2021/12/06 04:42:23;;;;;;;39.55;19.40;;;;;;;4.73;nan;99343.09;5031065;28;20487;-73
2021/12/06 04:45:11;;;;;;;34.53;18.10;;;;;;;4.71;nan;99343.31;5029933;28;20044;-73
2021/12/06 04:47:57;;;;;;;39.65;19.90;;;;;;;4.70;nan;99341.72;5028907;28;20044;-74
2021/12/06 04:50:43;;;;;;;45.50;21.95;;;;;;;4.64;nan;99338.13;5031002;28;20512;-73
2021/12/06 04:53:36;;;;;;;47.50;22.38;;;;;;;4.59;nan;99340.56;5034946;28;20025;-74
2021/12/06 04:56:31;;;;;;;46.22;23.25;;;;;;;4.63;nan;99349.56;5035540;28;20095;-74
2021/12/06 04:59:29;;;;;;;44.58;21.77;;;;;;;4.64;nan;99356.38;5032950;28;20487;-74
2021/12/06 05:02:27;;;;;;;44.25;20.23;;;;;;;4.47;nan;99335.25;5027064;28;20458;-73
2021/12/06 05:05:22;;;;;;;45.28;21.13;;;;;;;4.55;nan;99352.47;5022083;28;20041;-72
2021/12/06 05:08:26;;;;;;;46.35;20.20;;;;;;;4.31;nan;99320.13;5023550;28;20038;-73
2021/12/06 05:11:13;;;;;;;50.85;22.25;;;;;;;4.52;nan;99354.66;5028410;28;20041;-69
2021/12/06 05:14:02;;;;;;;51.50;23.52;;;;;;;4.36;nan;99343.75;5018042;28;20478;-75
2021/12/06 05:16:47;;;;;;;53.67;23.27;;;;;;;4.42;nan;99374.19;5023564;28;20487;-75
2021/12/06 05:19:34;;;;;;;42.25;19.90;;;;;;;4.39;nan;99390.25;5030369;28;20041;-75
2021/12/06 05:22:20;;;;;;;44.88;21.42;;;;;;;4.34;nan;99407.53;5026109;28;20090;-75
2021/12/06 05:25:08;;;;;;;44.95;19.70;;;;;;;4.36;nan;99434.97;5030888;28;20452;-75
2021/12/06 05:27:54;;;;;;;44.80;20.63;;;;;;;4.30;nan;99416.75;5031288;28;20034;-75
2021/12/06 05:30:42;;;;;;;39.47;19.00;;;;;;;4.28;nan;99434.41;5011505;28;20045;-75
2021/12/06 05:33:29;;;;;;;40.88;18.90;;;;;;;4.28;nan;99434.41;5021527;28;20035;-75
2021/12/06 05:36:15;;;;;;;43.92;19.88;;;;;;;4.32;nan;99446.03;5030583;28;20041;-75
2021/12/06 05:39:03;;;;;;;44.50;19.60;;;;;;;4.25;nan;99435.63;5028688;28;20034;-75
2021/12/06 05:41:49;;;;;;;45.50;19.65;;;;;;;4.20;nan;99432.84;5029981;28;20030;-75
2021/12/06 05:44:35;;;;;;;45.78;19.80;;;;;;;4.22;nan;99447.25;5028982;28;20033;-75
2021/12/06 05:47:21;;;;;;;47.13;20.48;;;;;;;4.22;nan;99446.47;5030247;28;20037;-75
2021/12/06 05:50:07;;;;;;;48.17;20.70;;;;;;;4.26;nan;99463.25;5030622;28;20399;-76
2021/12/06 05:52:54;;;;;;;47.25;20.85;;;;;;;4.00;nan;99419.91;5030223;28;20484;-77
2021/12/06 05:55:41;;;;;;;49.10;20.88;;;;;;;4.25;nan;99457.25;5029370;28;20091;-76
2021/12/06 05:58:28;;;;;;;50.03;22.50;;;;;;;4.19;nan;99444.25;5030314;28;20543;-75
2021/12/06 06:01:14;;;;;;;52.42;22.38;;;;;;;4.19;nan;99449.47;5031822;28;20038;-76
2021/12/06 06:04:01;;;;;;;54.50;22.98;;;;;;;4.21;nan;99460.47;5034536;28;20033;-76
2021/12/06 06:06:49;;;;;;;50.83;22.17;;;;;;;4.22;nan;99472.53;5032590;28;20118;-76
2021/12/06 06:09:35;;;;;;;54.58;22.25;;;;;;;4.10;nan;99461.94;5033885;28;20033;-76
2021/12/06 06:12:21;;;;;;;54.38;22.30;;;;;;;4.16;nan;99476.72;5033158;28;20164;-75
2021/12/06 06:15:07;;;;;;;52.33;24.00;;;;;;;4.15;nan;99476.94;5035466;28;20135;-77
2021/12/06 06:17:53;;;;;;;56.35;22.98;;;;;;;4.18;nan;99484.34;5033488;28;20069;-77
2021/12/06 06:20:44;;;;;;;55.92;21.95;;;;;;;4.16;nan;99483.75;5035716;28;20545;-77
2021/12/06 06:23:30;;;;;;;57.65;23.75;;;;;;;4.19;nan;99488.53;5033716;28;20052;-78
2021/12/06 06:26:16;;;;;;;59.55;21.70;;;;;;;4.22;nan;99499.38;5028715;28;20124;-78
2021/12/06 06:29:02;;;;;;;62.40;23.10;;;;;;;4.11;nan;99480.97;5019328;28;20403;-77
2021/12/06 06:31:48;;;;;;;60.88;23.20;;;;;;;4.24;nan;99512.22;5033543;28;20033;-78
2021/12/06 06:34:34;;;;;;;61.53;23.75;;;;;;;4.25;nan;99508.59;5032040;28;20038;-74
2021/12/06 06:37:20;;;;;;;63.75;25.00;;;;;;;4.17;nan;99491.38;5031769;28;20041;-75
2021/12/06 06:40:07;;;;;;;68.50;29.15;;;;;;;4.15;nan;99484.78;5032303;28;20116;-74
2021/12/06 06:42:53;;;;;;;76.57;27.05;;;;;;;4.19;nan;99498.97;5031979;28;20427;-78
2021/12/06 06:45:39;;;;;;;69.50;24.08;;;;;;;4.12;nan;99488.59;5037039;28;20037;-76
2021/12/06 06:48:25;;;;;;;84.53;29.55;;;;;;;4.26;nan;99512.78;5015878;28;20109;-76
2021/12/06 06:51:11;;;;;;;76.40;27.50;;;;;;;4.17;nan;99490.56;5029792;28;20068;-76
2021/12/06 06:53:57;;;;;;;75.63;26.58;;;;;;;4.22;nan;99498.56;5037296;28;20025;-77
2021/12/06 06:56:43;;;;;;;68.15;26.45;;;;;;;4.23;nan;99507.97;5030988;28;20033;-75
2021/12/06 06:59:29;;;;;;;68.75;27.17;;;;;;;4.12;nan;99511.22;5015695;28;20042;-79
2021/12/06 07:02:15;;;;;;;74.22;27.13;;;;;;;4.20;nan;99529.25;5030048;28;20101;-73
2021/12/06 07:05:01;;;;;;;71.50;26.13;;;;;;;4.10;nan;99523.66;5024547;28;20494;-75
2021/12/06 07:07:46;;;;;;;70.50;25.85;;;;;;;4.12;nan;99534.66;5031092;28;20484;-75
2021/12/06 07:10:33;;;;;;;71.65;26.85;;;;;;;4.01;nan;99529.06;5027441;28;20084;-74
2021/12/06 07:13:19;;;;;;;73.50;26.38;;;;;;;4.14;nan;99543.06;5032363;28;20043;-74
2021/12/06 07:16:07;;;;;;;72.22;25.80;;;;;;;4.05;nan;99535.50;5033504;28;20103;-75
2021/12/06 07:18:53;;;;;;;70.22;27.52;;;;;;;4.13;nan;99552.72;5032188;28;20037;-74
2021/12/06 07:21:39;;;;;;;74.97;26.60;;;;;;;4.07;nan;99555.31;5031436;28;20084;-74
2021/12/06 07:24:25;;;;;;;99.32;35.05;;;;;;;4.06;nan;99557.13;5031966;28;20034;-74
2021/12/06 07:27:11;;;;;;;80.40;29.30;;;;;;;4.00;nan;99553.53;5027407;28;20042;-74
2021/12/06 07:29:57;;;;;;;82.90;29.42;;;;;;;4.10;nan;99578.38;5032709;28;20120;-75
2021/12/06 07:32:44;;;;;;;60.72;24.67;;;;;;;4.09;nan;99581.97;5031823;28;20037;-74
2021/12/06 07:35:31;;;;;;;53.72;21.70;;;;;;;3.91;nan;99561.75;5033364;28;20458;-74
2021/12/06 07:38:17;;;;;;;50.13;19.35;;;;;;;3.95;nan;99568.16;5014125;28;20566;-75
2021/12/06 07:41:05;;;;;;;46.45;18.05;;;;;;;3.94;nan;99574.38;5027531;28;20044;-74
2021/12/06 07:43:51;;;;;;;43.95;18.10;;;;;;;3.95;nan;99565.53;5033584;28;20064;-76
2021/12/06 07:46:37;;;;;;;35.53;16.48;;;;;;;3.92;nan;99556.34;5031871;28;20040;-75
2021/12/06 07:49:23;;;;;;;38.78;16.42;;;;;;;3.91;nan;99554.75;5020171;28;20132;-74
2021/12/06 07:52:09;;;;;;;38.13;15.65;;;;;;;3.86;nan;99546.75;5027978;28;20033;-75
2021/12/06 07:54:58;;;;;;;41.92;18.10;;;;;;;3.89;nan;99553.34;5022544;28;20034;-75
2021/12/06 07:57:45;;;;;;;37.92;15.82;;;;;;;3.90;nan;99552.34;5026685;28;20124;-75
2021/12/06 08:00:33;;;;;;;31.35;15.60;;;;;;;3.88;nan;99541.31;5030484;28;20045;-76
2021/12/06 08:03:22;;;;;;;30.95;14.55;;;;;;;3.93;nan;99544.13;5018813;28;20034;-76
2021/12/06 08:06:09;;;;;;;28.95;13.95;;;;;;;3.72;nan;99516.50;5027972;28;20464;-76
2021/12/06 08:08:55;;;;;;;30.58;13.50;;;;;;;3.92;nan;99548.53;5023755;28;20095;-75
2021/12/06 08:11:41;;;;;;;33.20;15.10;;;;;;;4.01;nan;99556.94;5017727;28;20061;-76
2021/12/06 08:14:27;;;;;;;35.65;15.73;;;;;;;3.92;nan;99540.72;5029488;28;20064;-75
2021/12/06 08:17:15;;;;;;;30.25;13.32;;;;;;;3.88;nan;99542.13;5028896;28;20120;-76
2021/12/06 08:20:01;;;;;;;30.70;13.15;;;;;;;3.86;nan;99535.53;5030821;28;20041;-75
2021/12/06 08:22:47;;;;;;;29.52;14.18;;;;;;;4.01;nan;99565.53;5021391;28;20037;-76
2021/12/06 08:25:33;;;;;;;150.32;24.95;;;;;;;3.99;nan;99562.34;5029638;28;20079;-75
2021/12/06 08:28:22;;;;;;;30.58;15.30;;;;;;;4.05;nan;99556.34;5028589;28;20033;-75
2021/12/06 08:31:10;;;;;;;32.50;14.85;;;;;;;4.11;nan;99572.16;5054453;28;20033;-76
2021/12/06 08:33:56;;;;;;;26.75;13.20;;;;;;;4.04;nan;99564.34;5028199;28;20038;-76
2021/12/06 08:36:42;;;;;;;41.38;15.40;;;;;;;4.05;nan;99566.75;5029295;28;20144;-75
2021/12/06 08:39:28;;;;;;;29.95;14.70;;;;;;;4.07;nan;99563.13;5030048;28;20475;-76
2021/12/06 08:42:13;;;;;;;32.35;14.90;;;;;;;3.98;nan;99565.16;5027958;28;20442;-73
2021/12/06 08:44:59;;;;;;;25.48;12.23;;;;;;;3.96;nan;99557.53;5028674;28;20148;-72
2021/12/06 08:47:45;;;;;;;32.13;14.45;;;;;;;3.97;nan;99563.53;5017023;28;20116;-72
2021/12/06 08:50:31;;;;;;;29.20;14.73;;;;;;;4.00;nan;99569.16;5028054;28;20033;-76
2021/12/06 08:53:17;;;;;;;29.50;14.30;;;;;;;3.99;nan;99572.75;5023919;28;20042;-74
2021/12/06 08:56:03;;;;;;;43.70;22.90;;;;;;;4.01;nan;99565.53;5011858;28;20168;-75
2021/12/06 08:58:50;;;;;;;36.67;19.25;;;;;;;3.98;nan;99565.97;5029951;28;20045;-75
2021/12/06 09:01:37;;;;;;;23.83;13.05;;;;;;;4.03;nan;99578.38;5029668;28;20461;-75
2021/12/06 09:04:25;;;;;;;29.83;15.55;;;;;;;4.04;nan;99583.38;5030684;28;20041;-73
2021/12/06 09:07:13;;;;;;;29.95;13.20;;;;;;;4.05;nan;99581.59;5030954;28;20040;-74
2021/12/06 09:09:59;;;;;;;29.95;15.43;;;;;;;3.89;nan;99566.38;5029756;28;20038;-75
2021/12/06 09:12:45;;;;;;;28.60;14.23;;;;;;;3.87;nan;99571.75;5028498;28;20045;-76
2021/12/06 09:15:32;;;;;;;29.60;12.93;;;;;;;3.93;nan;99575.38;5010518;28;20045;-76
2021/12/06 09:18:19;;;;;;;25.08;12.30;;;;;;;3.86;nan;99572.00;5026220;28;20057;-76
2021/12/06 09:21:09;;;;;;;26.10;12.48;;;;;;;3.92;nan;99592.78;5025568;28;20036;-75
2021/12/06 09:23:55;;;;;;;23.70;12.35;;;;;;;3.86;nan;99583.19;5023879;28;20049;-76
2021/12/06 09:26:42;;;;;;;24.30;12.50;;;;;;;3.81;nan;99585.59;5024448;28;20038;-76
2021/12/06 09:29:29;;;;;;;24.75;12.00;;;;;;;3.90;nan;99601.81;5016821;28;20072;-76
2021/12/06 09:32:17;;;;;;;42.53;14.48;;;;;;;3.89;nan;99600.22;5028149;28;20072;-76
2021/12/06 09:35:04;;;;;;;24.15;12.38;;;;;;;3.89;nan;99601.03;5027981;28;20044;-76
2021/12/06 09:37:50;;;;;;;24.27;12.05;;;;;;;3.69;nan;99563.75;5031350;28;20045;-76
2021/12/06 09:40:40;;;;;;;26.27;12.50;;;;;;;3.88;nan;99604.63;5033749;28;20045;-77
2021/12/06 09:43:27;;;;;;;24.98;12.32;;;;;;;3.81;nan;99596.03;5031444;28;20076;-77
2021/12/06 09:46:13;;;;;;;28.80;12.85;;;;;;;3.80;nan;99600.41;5032253;28;20507;-76
2021/12/06 09:48:59;;;;;;;28.77;12.60;;;;;;;3.83;nan;99604.41;5033992;28;20459;-77
2021/12/06 09:51:51;;;;;;;31.52;13.57;;;;;;;3.81;nan;99607.25;5021455;28;20040;-75
2021/12/06 09:54:40;;;;;;;29.90;13.43;;;;;;;3.75;nan;99602.03;5023431;28;20083;-76
2021/12/06 09:57:25;;;;;;;23.52;11.85;;;;;;;3.72;nan;99592.00;5031539;28;20124;-75
2021/12/06 10:00:14;;;;;;;35.50;14.52;;;;;;;3.78;nan;99599.00;5033304;28;20033;-76
2021/12/06 10:03:01;;;;;;;29.50;13.77;;;;;;;3.79;nan;99609.25;5033301;28;20030;-76
2021/12/06 10:05:47;;;;;;;28.05;13.73;;;;;;;3.77;nan;99600.03;5032875;28;20044;-76
2021/12/06 10:08:36;;;;;;;26.98;12.15;;;;;;;3.66;nan;99593.59;5034454;28;20034;-76
2021/12/06 10:11:24;;;;;;;25.05;11.73;;;;;;;3.70;nan;99591.41;5021490;28;20036;-78
2021/12/06 10:14:11;;;;;;;30.20;12.82;;;;;;;3.77;nan;99608.63;5026747;28;20037;-73
2021/12/06 10:16:57;;;;;;;29.65;12.27;;;;;;;3.69;nan;99602.81;5018481;28;20065;-73
2021/12/06 10:19:44;;;;;;;37.10;15.20;;;;;;;3.70;nan;99610.44;5014570;28;20495;-75
2021/12/06 10:22:30;;;;;;;38.53;14.05;;;;;;;3.73;nan;99617.03;5031103;28;20037;-73
2021/12/06 10:25:16;;;;;;;36.05;13.95;;;;;;;3.80;nan;99631.66;5035979;28;20048;-74
2021/12/06 10:28:04;;;;;;;37.65;16.48;;;;;;;3.75;nan;99623.66;5036257;28;20036;-73
2021/12/06 10:30:54;;;;;;;29.73;13.02;;;;;;;3.70;nan;99620.84;5038790;28;20033;-73
2021/12/06 10:33:47;;;;;;;30.63;12.20;;;;;;;3.72;nan;99625.88;5032791;28;20107;-75
2021/12/06 10:36:34;;;;;;;38.90;14.75;;;;;;;3.76;nan;99633.06;5032764;28;20363;-73
2021/12/06 10:39:22;;;;;;;33.35;14.10;;;;;;;3.68;nan;99616.84;5033284;28;20454;-72
2021/12/06 10:42:26;;;;;;;78.10;17.42;;;;;;;3.64;nan;99613.84;5035590;28;20044;-72
2021/12/06 10:45:16;;;;;;;33.42;15.27;;;;;;;3.72;nan;99628.47;5028700;28;20116;-73
2021/12/06 10:48:19;;;;;;;32.67;14.25;;;;;;;3.69;nan;99618.44;5028986;28;20053;-73
2021/12/06 10:51:10;;;;;;;59.88;15.30;;;;;;;3.73;nan;99619.63;5030164;28;20458;-75
2021/12/06 10:54:02;;;;;;;33.25;15.20;;;;;;;3.65;nan;99604.22;5033809;28;20063;-74
2021/12/06 10:56:51;;;;;;;33.85;14.95;;;;;;;3.65;nan;99620.63;5036296;28;20033;-74
2021/12/06 10:59:39;;;;;;;36.55;16.15;;;;;;;3.72;nan;99628.47;5033103;28;20068;-74
2021/12/06 11:02:24;;;;;;;38.22;17.70;;;;;;;3.72;nan;99623.25;5038241;28;20037;-74
2021/12/06 11:05:26;;;;;;;40.85;16.92;;;;;;;3.72;nan;99629.25;5029548;28;20045;-74
2021/12/06 11:08:15;;;;;;;35.88;14.38;;;;;;;3.73;nan;99624.84;5032367;28;20536;-74
2021/12/06 11:11:06;;;;;;;35.80;14.55;;;;;;;3.77;nan;99626.06;5017272;28;20040;-75
2021/12/06 11:14:05;;;;;;;35.25;14.35;;;;;;;3.70;nan;99620.84;5034978;28;20048;-73
2021/12/06 11:16:57;;;;;;;31.92;12.57;;;;;;;3.70;nan;99607.03;5032158;28;20030;-73
2021/12/06 11:19:43;;;;;;;36.15;14.88;;;;;;;3.68;nan;99601.22;5034036;28;20044;-73
2021/12/06 11:22:29;;;;;;;47.10;16.98;;;;;;;3.73;nan;99604.00;5032808;28;20041;-73
2021/12/06 11:25:15;;;;;;;43.78;17.55;;;;;;;3.75;nan;99613.22;5027185;28;20557;-74
2021/12/06 11:28:21;;;;;;;50.65;18.73;;;;;;;3.78;nan;99618.06;5030945;28;20567;-74
2021/12/06 11:31:07;;;;;;;83.05;21.90;;;;;;;3.80;nan;99620.44;5032253;28;20041;-74
2021/12/06 11:33:58;;;;;;;42.30;16.92;;;;;;;3.80;nan;99623.06;5034943;28;20514;-73
2021/12/06 11:36:44;;;;;;;44.95;19.83;;;;;;;3.74;nan;99616.06;5036409;28;20114;-73
2021/12/06 11:39:31;;;;;;;77.85;19.40;;;;;;;3.79;nan;99621.47;5028389;28;20131;-73
2021/12/06 11:42:17;;;;;;;39.35;18.40;;;;;;;3.67;nan;99610.84;5034032;28;20030;-73
2021/12/06 11:45:03;;;;;;;42.35;19.23;;;;;;;3.76;nan;99625.25;5032479;28;20043;-73
2021/12/06 11:48:00;;;;;;;39.40;18.85;;;;;;;3.80;nan;99625.66;5023755;28;20033;-73
2021/12/06 11:50:57;;;;;;;44.25;17.27;;;;;;;3.74;nan;99619.44;5030336;28;20064;-73
2021/12/06 11:53:54;;;;;;;37.55;16.90;;;;;;;3.72;nan;99612.84;5029190;28;20087;-73
2021/12/06 11:56:44;;;;;;;54.45;18.40;;;;;;;3.72;nan;99613.63;5030313;28;20529;-73
2021/12/06 11:59:30;;;;;;;46.78;15.75;;;;;;;3.73;nan;99617.84;5029096;28;20116;-73
2021/12/06 12:02:28;;;;;;;34.15;14.93;;;;;;;3.83;nan;99635.66;5030151;28;20078;-73
2021/12/06 12:05:25;;;;;;;37.35;14.95;;;;;;;3.82;nan;99637.47;5028962;28;20037;-73
2021/12/06 12:08:13;;;;;;;31.35;14.65;;;;;;;3.81;nan;99628.06;5028692;28;20048;-72
2021/12/06 12:10:59;;;;;;;28.88;14.02;;;;;;;3.79;nan;99631.88;5013677;28;20103;-73
2021/12/06 12:13:45;;;;;;;36.20;18.13;;;;;;;3.73;nan;99620.44;5013508;28;20037;-73
2021/12/06 12:16:31;;;;;;;53.20;26.77;;;;;;;3.82;nan;99632.25;5030553;28;20510;-73
2021/12/06 12:19:16;;;;;;;133.00;26.52;;;;;;;3.84;nan;99619.06;5029777;28;20041;-73
2021/12/06 12:22:02;;;;;;;33.85;15.63;;;;;;;3.90;nan;99625.25;5024606;28;20034;-73
2021/12/06 12:24:53;;;;;;;34.60;17.00;;;;;;;3.86;nan;99619.66;5025861;28;20037;-73
2021/12/06 12:30:31;;;;;;;35.50;18.30;;;;;;;3.92;nan;99623.25;5029283;28;20025;-73
2021/12/06 12:33:19;;;;;;;34.47;18.25;;;;;;;3.84;nan;99614.66;5029651;28;20039;-73
2021/12/06 12:36:10;;;;;;;32.10;15.65;;;;;;;3.91;nan;99632.09;5027193;28;20052;-74
2021/12/06 12:38:57;;;;;;;30.85;14.85;;;;;;;3.93;nan;99632.69;5031794;28;20037;-74
2021/12/06 12:41:58;;;;;;;41.88;17.33;;;;;;;3.92;nan;99637.06;5038918;28;20030;-75
2021/12/06 12:44:49;;;;;;;32.83;15.10;;;;;;;3.97;nan;99642.47;5032944;28;20045;-74
2021/12/06 12:47:35;;;;;;;33.72;15.38;;;;;;;3.95;nan;99628.88;5035555;28;20067;-74
2021/12/06 12:50:21;;;;;;;38.17;16.60;;;;;;;3.92;nan;99631.06;5029368;28;20030;-74
2021/12/06 12:53:14;;;;;;;35.75;15.60;;;;;;;3.72;nan;99592.00;5022586;28;20041;-75
2021/12/06 12:56:00;;;;;;;35.83;17.17;;;;;;;3.90;nan;99625.25;5028582;28;20049;-73
2021/12/06 12:58:46;;;;;;;34.33;17.13;;;;;;;4.02;nan;99640.09;5029833;28;20479;-74
2021/12/06 13:01:33;;;;;;;32.95;17.52;;;;;;;3.93;nan;99625.66;5024240;28;20037;-73
2021/12/06 13:04:21;;;;;;;33.03;16.35;;;;;;;4.02;nan;99644.50;5027379;28;20065;-73
2021/12/06 13:07:14;;;;;;;56.13;19.73;;;;;;;4.01;nan;99638.47;5028941;28;20076;-74
2021/12/06 13:10:29;;;;;;;199.88;30.33;;;;;;;4.10;nan;99648.72;5031886;28;20041;-74
2021/12/06 13:13:40;;;;;;;38.67;16.73;;;;;;;4.11;nan;99647.72;5028307;28;20037;-74
2021/12/06 13:16:45;;;;;;;36.17;16.92;;;;;;;4.13;nan;99648.31;5028494;28;20041;-74
2021/12/06 13:19:43;;;;;;;61.33;18.70;;;;;;;3.89;nan;99614.03;5024749;28;20076;-75
2021/12/06 13:22:31;;;;;;;33.90;15.48;;;;;;;4.19;nan;99652.69;5028613;28;20064;-73
2021/12/06 13:25:20;;;;;;;26.27;14.02;;;;;;;4.13;nan;99637.88;5028561;28;20029;-74
2021/12/06 13:28:09;;;;;;;30.70;15.97;;;;;;;4.19;nan;99645.72;5029451;28;20176;-74
2021/12/06 13:31:02;;;;;;;33.05;17.10;;;;;;;4.17;nan;99636.50;5028921;28;20040;-72
2021/12/06 13:33:49;;;;;;;33.28;16.13;;;;;;;4.24;nan;99642.50;5026351;28;20065;-74
2021/12/06 13:36:44;;;;;;;25.33;13.57;;;;;;;4.24;nan;99637.28;5027376;28;20825;-74